sensor_id;sensor_type;location;lat;lon;timestamp;pressure;altitude;pressure_sealevel;temperature;humidity
50977;BME280;36992;48.200;12.418;2023-02-19T00:01:44;97131.53;;;14.75;45.48
50977;BME280;36992;48.200;12.418;2023-02-19T00:04:13;97131.25;;;14.76;45.15
50977;BME280;36992;48.200;12.418;2023-02-19T00:06:40;97132.63;;;14.74;45.26
50977;BME280;36992;48.200;12.418;2023-02-19T00:09:09;97128.31;;;14.73;45.22
50977;BME280;36992;48.200;12.418;2023-02-19T00:11:36;97133.75;;;14.73;45.06
50977;BME280;36992;48.200;12.418;2023-02-19T00:14:03;97121.31;;;14.72;45.06
50977;BME280;36992;48.200;12.418;2023-02-19T00:16:33;97131.53;;;14.75;44.67
50977;BME280;36992;48.200;12.418;2023-02-19T00:19:01;97128.31;;;14.73;44.57
50977;BME280;36992;48.200;12.418;2023-02-19T00:21:29;97123.69;;;14.73;44.50
50977;BME280;36992;48.200;12.418;2023-02-19T00:23:57;97115.88;;;14.72;44.58
50977;BME280;36992;48.200;12.418;2023-02-19T00:26:25;97116.47;;;14.68;44.39
50977;BME280;36992;48.200;12.418;2023-02-19T00:28:53;97115.06;;;14.71;44.29
50977;BME280;36992;48.200;12.418;2023-02-19T00:31:22;97116.66;;;14.72;44.01
50977;BME280;36992;48.200;12.418;2023-02-19T00:33:53;97115.88;;;14.72;44.12
50977;BME280;36992;48.200;12.418;2023-02-19T00:36:20;97120.00;;;14.69;44.12
50977;BME280;36992;48.200;12.418;2023-02-19T00:38:47;97109.47;;;14.67;43.75
50977;BME280;36992;48.200;12.418;2023-02-19T00:41:14;97111.06;;;14.68;43.68
50977;BME280;36992;48.200;12.418;2023-02-19T00:43:46;97099.59;;;14.72;44.13
50977;BME280;36992;48.200;12.418;2023-02-19T00:46:13;97100.22;;;14.68;43.85
50977;BME280;36992;48.200;12.418;2023-02-19T00:48:40;97096.38;;;14.69;43.80
50977;BME280;36992;48.200;12.418;2023-02-19T00:51:08;97092.59;;;14.70;43.64
50977;BME280;36992;48.200;12.418;2023-02-19T00:53:34;97092.88;;;14.69;43.55
50977;BME280;36992;48.200;12.418;2023-02-19T00:56:01;97089.38;;;14.68;43.67
50977;BME280;36992;48.200;12.418;2023-02-19T00:58:28;97099.59;;;14.72;43.57
50977;BME280;36992;48.200;12.418;2023-02-19T01:00:54;97075.81;;;14.68;43.47
50977;BME280;36992;48.200;12.418;2023-02-19T01:03:21;97083.47;;;14.66;43.43
50977;BME280;36992;48.200;12.418;2023-02-19T01:05:47;97079.16;;;14.65;43.63
50977;BME280;36992;48.200;12.418;2023-02-19T01:08:15;97064.47;;;14.66;43.39
50977;BME280;36992;48.200;12.418;2023-02-19T01:10:42;97068.31;;;14.65;43.74
50977;BME280;36992;48.200;12.418;2023-02-19T01:13:09;97066.19;;;14.62;43.55
50977;BME280;36992;48.200;12.418;2023-02-19T01:15:37;97060.78;;;14.62;43.62
50977;BME280;36992;48.200;12.418;2023-02-19T01:18:04;97061.91;;;14.61;43.65
50977;BME280;36992;48.200;12.418;2023-02-19T01:20:30;97058.41;;;14.61;43.97
50977;BME280;36992;48.200;12.418;2023-02-19T01:22:57;97062.19;;;14.60;43.92
50977;BME280;36992;48.200;12.418;2023-02-19T01:25:25;97067.94;;;14.58;43.99
50977;BME280;36992;48.200;12.418;2023-02-19T01:27:51;97051.19;;;14.56;44.04
50977;BME280;36992;48.200;12.418;2023-02-19T01:30:18;97055.00;;;14.55;44.03
50977;BME280;36992;48.200;12.418;2023-02-19T01:32:44;97046.09;;;14.54;44.19
50977;BME280;36992;48.200;12.418;2023-02-19T01:35:11;97046.09;;;14.54;44.27
50977;BME280;36992;48.200;12.418;2023-02-19T01:37:37;97050.69;;;14.54;44.03
50977;BME280;36992;48.200;12.418;2023-02-19T01:40:05;97049.09;;;14.53;43.87
50977;BME280;36992;48.200;12.418;2023-02-19T01:42:33;97043.03;;;14.56;44.01
50977;BME280;36992;48.200;12.418;2023-02-19T01:45:25;97044.84;;;14.61;44.16
50977;BME280;36992;48.200;12.418;2023-02-19T01:48:03;97043.38;;;14.54;44.16
50977;BME280;36992;48.200;12.418;2023-02-19T01:50:36;97034.44;;;14.54;44.06
50977;BME280;36992;48.200;12.418;2023-02-19T01:53:06;97032.84;;;14.53;44.33
50977;BME280;36992;48.200;12.418;2023-02-19T01:55:34;97030.44;;;14.51;44.32
50977;BME280;36992;48.200;12.418;2023-02-19T01:58:02;97031.72;;;14.54;44.27
50977;BME280;36992;48.200;12.418;2023-02-19T02:00:29;97030.72;;;14.50;44.29
50977;BME280;36992;48.200;12.418;2023-02-19T02:02:58;97033.94;;;14.52;44.50
50977;BME280;36992;48.200;12.418;2023-02-19T02:05:35;97027.41;;;14.53;44.42
50977;BME280;36992;48.200;12.418;2023-02-19T02:08:03;97025.63;;;14.48;44.86
50977;BME280;36992;48.200;12.418;2023-02-19T02:10:49;97017.19;;;14.50;45.22
50977;BME280;36992;48.200;12.418;2023-02-19T02:13:17;97028.34;;;14.48;45.13
50977;BME280;36992;48.200;12.418;2023-02-19T02:15:50;97016.69;;;14.48;45.66
50977;BME280;36992;48.200;12.418;2023-02-19T02:18:27;97019.72;;;14.46;45.97
50977;BME280;36992;48.200;12.418;2023-02-19T02:21:10;97013.63;;;14.40;46.37
50977;BME280;36992;48.200;12.418;2023-02-19T02:23:51;97016.94;;;14.37;47.03
50977;BME280;36992;48.200;12.418;2023-02-19T02:26:34;97009.44;;;14.34;47.26
50977;BME280;36992;48.200;12.418;2023-02-19T02:29:35;97013.28;;;14.33;47.02
50977;BME280;36992;48.200;12.418;2023-02-19T02:32:09;97011.28;;;14.25;47.86
50977;BME280;36992;48.200;12.418;2023-02-19T02:34:40;97004.91;;;14.21;49.03
50977;BME280;36992;48.200;12.418;2023-02-19T02:37:11;97005.63;;;14.12;49.06
50977;BME280;36992;48.200;12.418;2023-02-19T02:39:40;97005.13;;;14.10;49.31
50977;BME280;36992;48.200;12.418;2023-02-19T02:42:07;97004.47;;;14.05;49.62
50977;BME280;36992;48.200;12.418;2023-02-19T02:44:51;97003.78;;;13.99;49.82
50977;BME280;36992;48.200;12.418;2023-02-19T02:47:36;97008.91;;;14.00;49.48
50977;BME280;36992;48.200;12.418;2023-02-19T02:50:07;96995.00;;;13.93;50.76
50977;BME280;36992;48.200;12.418;2023-02-19T02:52:36;96987.16;;;13.92;50.77
50977;BME280;36992;48.200;12.418;2023-02-19T02:55:24;96999.41;;;13.89;51.13
50977;BME280;36992;48.200;12.418;2023-02-19T02:57:53;96988.38;;;13.85;51.19
50977;BME280;36992;48.200;12.418;2023-02-19T03:00:20;96990.63;;;13.83;51.11
50977;BME280;36992;48.200;12.418;2023-02-19T03:02:48;96973.06;;;13.81;50.99
50977;BME280;36992;48.200;12.418;2023-02-19T03:05:17;96968.75;;;13.80;51.29
50977;BME280;36992;48.200;12.418;2023-02-19T03:08:05;96963.13;;;13.76;51.41
50977;BME280;36992;48.200;12.418;2023-02-19T03:10:38;96950.81;;;13.70;51.80
50977;BME280;36992;48.200;12.418;2023-02-19T03:13:09;96943.81;;;13.69;51.99
50977;BME280;36992;48.200;12.418;2023-02-19T03:15:58;96947.16;;;13.66;51.97
50977;BME280;36992;48.200;12.418;2023-02-19T03:18:49;96949.97;;;13.60;51.45
50977;BME280;36992;48.200;12.418;2023-02-19T03:21:36;96950.38;;;13.54;52.67
50977;BME280;36992;48.200;12.418;2023-02-19T03:24:05;96958.31;;;13.50;52.58
50977;BME280;36992;48.200;12.418;2023-02-19T03:26:51;96953.53;;;13.47;52.29
50977;BME280;36992;48.200;12.418;2023-02-19T03:29:20;96951.94;;;13.46;52.14
50977;BME280;36992;48.200;12.418;2023-02-19T03:31:52;96949.78;;;13.43;52.55
50977;BME280;36992;48.200;12.418;2023-02-19T03:34:24;96950.91;;;13.42;52.35
50977;BME280;36992;48.200;12.418;2023-02-19T03:36:55;96943.06;;;13.40;52.35
50977;BME280;36992;48.200;12.418;2023-02-19T03:39:25;96940.81;;;13.33;53.25
50977;BME280;36992;48.200;12.418;2023-02-19T03:41:59;96941.78;;;13.38;52.09
50977;BME280;36992;48.200;12.418;2023-02-19T03:44:36;96940.19;;;13.36;52.33
50977;BME280;36992;48.200;12.418;2023-02-19T03:47:08;96951.63;;;13.33;52.89
50977;BME280;36992;48.200;12.418;2023-02-19T03:49:43;96955.41;;;13.32;52.63
50977;BME280;36992;48.200;12.418;2023-02-19T03:52:15;96939.81;;;13.29;53.22
50977;BME280;36992;48.200;12.418;2023-02-19T03:54:48;96936.28;;;13.29;52.48
50977;BME280;36992;48.200;12.418;2023-02-19T03:57:20;96946.81;;;13.30;51.84
50977;BME280;36992;48.200;12.418;2023-02-19T03:59:52;96950.72;;;13.24;52.98
50977;BME280;36992;48.200;12.418;2023-02-19T04:02:27;96957.25;;;13.23;52.17
50977;BME280;36992;48.200;12.418;2023-02-19T04:05:01;96946.25;;;13.19;52.88
50977;BME280;36992;48.200;12.418;2023-02-19T04:07:31;96941.41;;;13.16;53.39
50977;BME280;36992;48.200;12.418;2023-02-19T04:09:59;96945.03;;;13.12;53.53
50977;BME280;36992;48.200;12.418;2023-02-19T04:12:27;96930.22;;;13.09;54.00
50977;BME280;36992;48.200;12.418;2023-02-19T04:14:58;96958.28;;;13.13;53.39
50977;BME280;36992;48.200;12.418;2023-02-19T04:17:30;96957.78;;;13.11;53.39
50977;BME280;36992;48.200;12.418;2023-02-19T04:20:02;96956.47;;;13.08;53.43
50977;BME280;36992;48.200;12.418;2023-02-19T04:22:31;96963.59;;;13.04;53.12
50977;BME280;36992;48.200;12.418;2023-02-19T04:24:58;96957.38;;;13.04;53.21
50977;BME280;36992;48.200;12.418;2023-02-19T04:27:25;96948.75;;;13.02;53.16
50977;BME280;36992;48.200;12.418;2023-02-19T04:29:51;96955.09;;;12.97;53.71
50977;BME280;36992;48.200;12.418;2023-02-19T04:32:18;96952.38;;;12.97;53.56
50977;BME280;36992;48.200;12.418;2023-02-19T04:34:45;96950.78;;;12.96;53.76
50977;BME280;36992;48.200;12.418;2023-02-19T04:37:12;96945.06;;;12.98;53.19
50977;BME280;36992;48.200;12.418;2023-02-19T04:39:39;96945.66;;;12.94;53.45
50977;BME280;36992;48.200;12.418;2023-02-19T04:42:05;96956.78;;;12.93;53.64
50977;BME280;36992;48.200;12.418;2023-02-19T04:44:32;96938.47;;;12.90;53.47
50977;BME280;36992;48.200;12.418;2023-02-19T04:46:58;96944.97;;;12.89;53.54
50977;BME280;36992;48.200;12.418;2023-02-19T04:49:25;96943.16;;;12.84;53.72
50977;BME280;36992;48.200;12.418;2023-02-19T04:51:51;96949.88;;;12.87;53.55
50977;BME280;36992;48.200;12.418;2023-02-19T04:54:19;96947.16;;;12.87;53.62
50977;BME280;36992;48.200;12.418;2023-02-19T04:56:45;96955.38;;;12.81;53.68
50977;BME280;36992;48.200;12.418;2023-02-19T04:59:12;96955.91;;;12.84;53.40
50977;BME280;36992;48.200;12.418;2023-02-19T05:01:38;96956.28;;;12.77;53.45
50977;BME280;36992;48.200;12.418;2023-02-19T05:04:05;96964.88;;;12.79;53.12
50977;BME280;36992;48.200;12.418;2023-02-19T05:06:31;96961.50;;;12.73;53.28
50977;BME280;36992;48.200;12.418;2023-02-19T05:08:58;96959.28;;;12.75;53.38
50977;BME280;36992;48.200;12.418;2023-02-19T05:11:26;96957.69;;;12.74;53.33
50977;BME280;36992;48.200;12.418;2023-02-19T05:13:53;96955.78;;;12.75;53.08
50977;BME280;36992;48.200;12.418;2023-02-19T05:16:20;96968.50;;;12.74;53.19
50977;BME280;36992;48.200;12.418;2023-02-19T05:18:46;96958.50;;;12.75;53.09
50977;BME280;36992;48.200;12.418;2023-02-19T05:21:13;96971.72;;;12.76;52.96
50977;BME280;36992;48.200;12.418;2023-02-19T05:23:40;96958.50;;;12.75;53.46
50977;BME280;36992;48.200;12.418;2023-02-19T05:26:09;96961.50;;;12.73;53.51
50977;BME280;36992;48.200;12.418;2023-02-19T05:28:38;96958.78;;;12.73;53.49
50977;BME280;36992;48.200;12.418;2023-02-19T05:31:07;96956.69;;;12.70;53.62
50977;BME280;36992;48.200;12.418;2023-02-19T05:33:34;96954.00;;;12.70;53.43
50977;BME280;36992;48.200;12.418;2023-02-19T05:36:04;96947.97;;;12.73;52.92
50977;BME280;36992;48.200;12.418;2023-02-19T05:38:31;96960.47;;;12.69;53.17
50977;BME280;36992;48.200;12.418;2023-02-19T05:41:05;96966.09;;;12.73;52.57
50977;BME280;36992;48.200;12.418;2023-02-19T05:43:32;96980.50;;;12.68;52.91
50977;BME280;36992;48.200;12.418;2023-02-19T05:46:00;96981.31;;;12.68;52.81
50977;BME280;36992;48.200;12.418;2023-02-19T05:48:26;96993.03;;;12.64;52.96
50977;BME280;36992;48.200;12.418;2023-02-19T05:50:53;96983.81;;;12.65;52.77
50977;BME280;36992;48.200;12.418;2023-02-19T05:53:19;96983.50;;;12.66;52.94
50977;BME280;36992;48.200;12.418;2023-02-19T05:55:46;96994.00;;;12.68;52.77
50977;BME280;36992;48.200;12.418;2023-02-19T05:58:12;96988.59;;;12.68;52.84
50977;BME280;36992;48.200;12.418;2023-02-19T06:00:38;96987.50;;;12.69;52.35
50977;BME280;36992;48.200;12.418;2023-02-19T06:03:06;96995.31;;;12.71;52.38
50977;BME280;36992;48.200;12.418;2023-02-19T06:05:33;96996.72;;;12.68;52.46
50977;BME280;36992;48.200;12.418;2023-02-19T06:07:59;97002.94;;;12.68;52.62
50977;BME280;36992;48.200;12.418;2023-02-19T06:10:25;97009.75;;;12.66;52.70
50977;BME280;36992;48.200;12.418;2023-02-19T06:12:52;97019.53;;;12.62;52.85
50977;BME280;36992;48.200;12.418;2023-02-19T06:15:19;97020.06;;;12.64;52.81
50977;BME280;36992;48.200;12.418;2023-02-19T06:17:46;97013.53;;;12.65;52.62
50977;BME280;36992;48.200;12.418;2023-02-19T06:20:14;97012.94;;;12.68;52.49
50977;BME280;36992;48.200;12.418;2023-02-19T06:22:41;97007.81;;;12.66;52.50
50977;BME280;36992;48.200;12.418;2023-02-19T06:25:07;97006.75;;;12.67;52.51
50977;BME280;36992;48.200;12.418;2023-02-19T06:27:37;97024.34;;;12.65;52.50
50977;BME280;36992;48.200;12.418;2023-02-19T06:30:04;97017.34;;;12.64;52.59
50977;BME280;36992;48.200;12.418;2023-02-19T06:32:31;97027.56;;;12.67;52.03
50977;BME280;36992;48.200;12.418;2023-02-19T06:34:57;97015.72;;;12.63;52.30
50977;BME280;36992;48.200;12.418;2023-02-19T06:37:25;97025.97;;;12.66;51.98
50977;BME280;36992;48.200;12.418;2023-02-19T06:39:51;97029.75;;;12.65;52.08
50977;BME280;36992;48.200;12.418;2023-02-19T06:42:18;97032.16;;;12.66;51.98
50977;BME280;36992;48.200;12.418;2023-02-19T06:44:44;97031.38;;;12.66;52.38
50977;BME280;36992;48.200;12.418;2023-02-19T06:47:11;97035.16;;;12.65;51.97
50977;BME280;36992;48.200;12.418;2023-02-19T06:49:37;97048.06;;;12.68;51.90
50977;BME280;36992;48.200;12.418;2023-02-19T06:52:04;97050.56;;;12.64;52.07
50977;BME280;36992;48.200;12.418;2023-02-19T06:54:32;97050.78;;;12.68;52.08
50977;BME280;36992;48.200;12.418;2023-02-19T06:56:59;97042.97;;;12.66;52.16
50977;BME280;36992;48.200;12.418;2023-02-19T06:59:26;97052.38;;;12.69;52.03
50977;BME280;36992;48.200;12.418;2023-02-19T07:01:52;97037.78;;;12.70;52.19
50977;BME280;36992;48.200;12.418;2023-02-19T07:04:19;97050.78;;;12.68;52.06
50977;BME280;36992;48.200;12.418;2023-02-19T07:06:45;97052.38;;;12.69;51.96
50977;BME280;36992;48.200;12.418;2023-02-19T07:09:12;97071.81;;;12.71;51.58
50977;BME280;36992;48.200;12.418;2023-02-19T07:11:39;97062.59;;;12.72;51.72
50977;BME280;36992;48.200;12.418;2023-02-19T07:14:07;97061.00;;;12.71;51.82
50977;BME280;36992;48.200;12.418;2023-02-19T07:16:39;97059.91;;;12.72;51.56
50977;BME280;36992;48.200;12.418;2023-02-19T07:19:05;97056.09;;;12.73;51.70
50977;BME280;36992;48.200;12.418;2023-02-19T07:21:31;97057.69;;;12.74;51.63
50977;BME280;36992;48.200;12.418;2023-02-19T07:24:02;97058.22;;;12.76;51.66
50977;BME280;36992;48.200;12.418;2023-02-19T07:26:28;97051.72;;;12.77;51.36
50977;BME280;36992;48.200;12.418;2023-02-19T07:28:56;97050.00;;;12.81;51.58
50977;BME280;36992;48.200;12.418;2023-02-19T07:31:23;97070.03;;;12.80;51.52
50977;BME280;36992;48.200;12.418;2023-02-19T07:33:50;97071.03;;;12.85;51.34
50977;BME280;36992;48.200;12.418;2023-02-19T07:36:18;97079.34;;;12.88;51.53
50977;BME280;36992;48.200;12.418;2023-02-19T07:38:45;97074.22;;;12.87;51.35
50977;BME280;36992;48.200;12.418;2023-02-19T07:41:12;97091.06;;;12.84;51.73
50977;BME280;36992;48.200;12.418;2023-02-19T07:43:39;97092.66;;;12.85;51.84
50977;BME280;36992;48.200;12.418;2023-02-19T07:46:08;97088.84;;;12.86;51.89
50977;BME280;36992;48.200;12.418;2023-02-19T07:48:35;97081.84;;;12.85;52.58
50977;BME280;36992;48.200;12.418;2023-02-19T07:51:04;97092.66;;;12.85;52.69
50977;BME280;36992;48.200;12.418;2023-02-19T07:53:32;97092.38;;;12.86;52.98
50977;BME280;36992;48.200;12.418;2023-02-19T07:55:59;97097.88;;;12.81;52.76
50977;BME280;36992;48.200;12.418;2023-02-19T07:58:26;97114.88;;;12.81;53.02
50977;BME280;36992;48.200;12.418;2023-02-19T08:00:53;97123.31;;;12.80;52.99
50977;BME280;36992;48.200;12.418;2023-02-19T08:03:21;97136.50;;;12.81;53.23
50977;BME280;36992;48.200;12.418;2023-02-19T08:05:46;97137.09;;;12.78;53.91
50977;BME280;36992;48.200;12.418;2023-02-19T08:08:15;97144.41;;;12.78;54.23
50977;BME280;36992;48.200;12.418;2023-02-19T08:10:41;97143.09;;;12.75;54.69
50977;BME280;36992;48.200;12.418;2023-02-19T08:13:27;97157.72;;;12.74;54.35
50977;BME280;36992;48.200;12.418;2023-02-19T08:15:55;97151.31;;;12.70;54.35
50977;BME280;36992;48.200;12.418;2023-02-19T08:18:35;97151.00;;;12.72;54.53
50977;BME280;36992;48.200;12.418;2023-02-19T08:21:01;97156.19;;;12.68;54.31
50977;BME280;36992;48.200;12.418;2023-02-19T08:23:28;97157.28;;;12.67;54.33
50977;BME280;36992;48.200;12.418;2023-02-19T08:25:57;97175.09;;;12.68;53.63
50977;BME280;36992;48.200;12.418;2023-02-19T08:28:23;97173.00;;;12.65;53.84
50977;BME280;36992;48.200;12.418;2023-02-19T08:30:50;97167.06;;;12.63;53.68
50977;BME280;36992;48.200;12.418;2023-02-19T08:33:19;97175.19;;;12.63;53.93
50977;BME280;36992;48.200;12.418;2023-02-19T08:35:47;97170.38;;;12.60;53.82
50977;BME280;36992;48.200;12.418;2023-02-19T08:38:14;97162.56;;;12.58;53.46
50977;BME280;36992;48.200;12.418;2023-02-19T08:40:42;97180.16;;;12.55;53.15
50977;BME280;36992;48.200;12.418;2023-02-19T08:43:10;97178.06;;;12.52;53.11
50977;BME280;36992;48.200;12.418;2023-02-19T08:45:38;97174.81;;;12.50;54.38
50977;BME280;36992;48.200;12.418;2023-02-19T08:48:05;97203.22;;;12.48;53.46
50977;BME280;36992;48.200;12.418;2023-02-19T08:50:32;97195.44;;;12.46;53.41
50977;BME280;36992;48.200;12.418;2023-02-19T08:53:00;97199.75;;;12.47;53.49
50977;BME280;36992;48.200;12.418;2023-02-19T08:55:28;97197.13;;;12.42;54.03
50977;BME280;36992;48.200;12.418;2023-02-19T08:57:54;97199.59;;;12.38;53.94
50977;BME280;36992;48.200;12.418;2023-02-19T09:00:21;97204.19;;;12.38;54.73
50977;BME280;36992;48.200;12.418;2023-02-19T09:02:48;97206.88;;;12.38;54.45
50977;BME280;36992;48.200;12.418;2023-02-19T09:05:15;97206.09;;;12.37;54.76
50977;BME280;36992;48.200;12.418;2023-02-19T09:07:42;97213.38;;;12.37;54.41
50977;BME280;36992;48.200;12.418;2023-02-19T09:10:11;97210.63;;;12.42;54.55
50977;BME280;36992;48.200;12.418;2023-02-19T09:12:39;97205.00;;;12.38;54.80
50977;BME280;36992;48.200;12.418;2023-02-19T09:15:06;97228.50;;;12.38;54.22
50977;BME280;36992;48.200;12.418;2023-02-19T09:17:33;97221.00;;;12.35;51.21
50977;BME280;36992;48.200;12.418;2023-02-19T09:19:59;97204.56;;;12.31;51.76
50977;BME280;36992;48.200;12.418;2023-02-19T09:22:25;97240.78;;;12.30;52.21
50977;BME280;36992;48.200;12.418;2023-02-19T09:24:52;97225.41;;;12.25;50.88
50977;BME280;36992;48.200;12.418;2023-02-19T09:27:20;97227.56;;;12.28;50.51
50977;BME280;36992;48.200;12.418;2023-02-19T09:29:47;97221.94;;;12.25;49.70
50977;BME280;36992;48.200;12.418;2023-02-19T09:32:13;97230.31;;;12.23;49.36
50977;BME280;36992;48.200;12.418;2023-02-19T09:34:40;97230.38;;;12.18;48.35
50977;BME280;36992;48.200;12.418;2023-02-19T09:37:07;97228.50;;;12.19;49.14
50977;BME280;36992;48.200;12.418;2023-02-19T09:39:34;97230.66;;;12.17;49.24
50977;BME280;36992;48.200;12.418;2023-02-19T09:42:03;97222.28;;;12.18;48.94
50977;BME280;36992;48.200;12.418;2023-02-19T09:44:39;97213.44;;;12.12;48.50
50977;BME280;36992;48.200;12.418;2023-02-19T09:47:14;97217.47;;;12.15;48.49
50977;BME280;36992;48.200;12.418;2023-02-19T09:49:43;97218.63;;;12.09;48.48
50977;BME280;36992;48.200;12.418;2023-02-19T09:52:17;97226.41;;;12.10;48.33
50977;BME280;36992;48.200;12.418;2023-02-19T09:54:45;97228.84;;;12.12;48.59
50977;BME280;36992;48.200;12.418;2023-02-19T09:57:15;97227.22;;;12.11;48.80
50977;BME280;36992;48.200;12.418;2023-02-19T09:59:47;97225.03;;;12.13;49.00
50977;BME280;36992;48.200;12.418;2023-02-19T10:02:15;97232.63;;;12.11;49.38
50977;BME280;36992;48.200;12.418;2023-02-19T10:04:43;97226.13;;;12.12;49.70
50977;BME280;36992;48.200;12.418;2023-02-19T10:07:11;97231.25;;;12.13;49.27
50977;BME280;36992;48.200;12.418;2023-02-19T10:09:38;97231.47;;;12.17;49.40
50977;BME280;36992;48.200;12.418;2023-02-19T10:12:13;97220.31;;;12.24;49.87
50977;BME280;36992;48.200;12.418;2023-02-19T10:14:45;97231.63;;;12.26;50.18
50977;BME280;36992;48.200;12.418;2023-02-19T10:17:20;97239.16;;;12.29;50.04
50977;BME280;36992;48.200;12.418;2023-02-19T10:19:48;97233.75;;;12.29;50.18
50977;BME280;36992;48.200;12.418;2023-02-19T10:22:14;97255.28;;;12.34;50.54
50977;BME280;36992;48.200;12.418;2023-02-19T10:24:42;97247.94;;;12.40;50.92
50977;BME280;36992;48.200;12.418;2023-02-19T10:27:11;97261.38;;;12.45;50.38
50977;BME280;36992;48.200;12.418;2023-02-19T10:29:37;97254.28;;;12.49;50.50
50977;BME280;36992;48.200;12.418;2023-02-19T10:32:16;97249.53;;;12.60;50.10
50977;BME280;36992;48.200;12.418;2023-02-19T10:34:45;97267.66;;;12.60;49.67
50977;BME280;36992;48.200;12.418;2023-02-19T10:37:13;97285.50;;;12.61;48.63
50977;BME280;36992;48.200;12.418;2023-02-19T10:39:43;97270.31;;;12.65;48.51
50977;BME280;36992;48.200;12.418;2023-02-19T10:42:16;97269.22;;;12.66;46.99
50977;BME280;36992;48.200;12.418;2023-02-19T10:44:45;97270.75;;;12.72;46.99
50977;BME280;36992;48.200;12.418;2023-02-19T10:47:17;97263.13;;;12.74;46.97
50977;BME280;36992;48.200;12.418;2023-02-19T10:49:45;97263.66;;;12.76;46.42
50977;BME280;36992;48.200;12.418;2023-02-19T10:52:15;97253.56;;;12.82;46.88
50977;BME280;36992;48.200;12.418;2023-02-19T10:54:43;97256.78;;;12.84;46.19
50977;BME280;36992;48.200;12.418;2023-02-19T10:57:25;97259.13;;;12.91;45.95
50977;BME280;36992;48.200;12.418;2023-02-19T10:59:58;97256.91;;;12.93;46.14
50977;BME280;36992;48.200;12.418;2023-02-19T11:02:28;97282.78;;;12.99;45.72
50977;BME280;36992;48.200;12.418;2023-02-19T11:05:04;97270.34;;;12.98;45.39
50977;BME280;36992;48.200;12.418;2023-02-19T11:07:31;97272.84;;;12.94;45.02
50977;BME280;36992;48.200;12.418;2023-02-19T11:09:58;97260.16;;;12.95;44.76
50977;BME280;36992;48.200;12.418;2023-02-19T11:12:27;97266.56;;;12.99;45.20
50977;BME280;36992;48.200;12.418;2023-02-19T11:14:54;97260.03;;;13.00;44.61
50977;BME280;36992;48.200;12.418;2023-02-19T11:17:22;97265.97;;;13.02;44.52
50977;BME280;36992;48.200;12.418;2023-02-19T11:19:52;97271.31;;;13.07;44.97
50977;BME280;36992;48.200;12.418;2023-02-19T11:22:28;97276.13;;;13.11;44.48
50977;BME280;36992;48.200;12.418;2023-02-19T11:25:01;97263.19;;;13.07;43.71
50977;BME280;36992;48.200;12.418;2023-02-19T11:27:29;97251.56;;;13.07;43.15
50977;BME280;36992;48.200;12.418;2023-02-19T11:30:25;97258.00;;;13.11;43.19
50977;BME280;36992;48.200;12.418;2023-02-19T11:33:13;97241.97;;;13.15;43.02
50977;BME280;36992;48.200;12.418;2023-02-19T11:35:46;97254.41;;;13.16;42.61
50977;BME280;36992;48.200;12.418;2023-02-19T11:38:14;97244.97;;;13.13;42.09
50977;BME280;36992;48.200;12.418;2023-02-19T11:40:44;97238.19;;;13.16;42.26
50977;BME280;36992;48.200;12.418;2023-02-19T11:43:24;97226.16;;;13.22;42.69
50977;BME280;36992;48.200;12.418;2023-02-19T11:46:00;97226.16;;;13.22;42.39
50977;BME280;36992;48.200;12.418;2023-02-19T11:48:50;97243.41;;;13.26;42.57
50977;BME280;36992;48.200;12.418;2023-02-19T11:51:35;97258.03;;;13.25;42.22
50977;BME280;36992;48.200;12.418;2023-02-19T11:54:17;97242.00;;;13.29;42.35
50977;BME280;36992;48.200;12.418;2023-02-19T11:56:50;97238.81;;;13.27;41.28
50977;BME280;36992;48.200;12.418;2023-02-19T11:59:28;97233.59;;;13.30;41.11
50977;BME280;36992;48.200;12.418;2023-02-19T12:02:20;97231.00;;;13.39;42.00
50977;BME280;36992;48.200;12.418;2023-02-19T12:05:17;97235.41;;;13.35;42.11
50977;BME280;36992;48.200;12.418;2023-02-19T12:08:15;97245.84;;;13.42;42.36
50977;BME280;36992;48.200;12.418;2023-02-19T12:10:56;97248.28;;;13.43;42.40
50977;BME280;36992;48.200;12.418;2023-02-19T12:13:35;97248.84;;;13.40;42.51
50977;BME280;36992;48.200;12.418;2023-02-19T12:16:13;97252.56;;;13.44;42.59
50977;BME280;36992;48.200;12.418;2023-02-19T12:18:57;97257.72;;;13.46;42.07
50977;BME280;36992;48.200;12.418;2023-02-19T12:21:42;97262.53;;;13.49;42.57
50977;BME280;36992;48.200;12.418;2023-02-19T12:27:17;97250.09;;;13.48;41.25
50977;BME280;36992;48.200;12.418;2023-02-19T12:30:15;97242.19;;;13.52;41.67
50977;BME280;36992;48.200;12.418;2023-02-19T12:33:20;97245.72;;;13.52;41.88
50977;BME280;36992;48.200;12.418;2023-02-19T12:35:59;97244.31;;;13.55;41.91
50977;BME280;36992;48.200;12.418;2023-02-19T12:38:30;97247.50;;;13.57;42.11
50977;BME280;36992;48.200;12.418;2023-02-19T12:41:19;97262.84;;;13.61;42.77
50977;BME280;36992;48.200;12.418;2023-02-19T12:43:52;97244.91;;;13.52;41.88
50977;BME280;36992;48.200;12.418;2023-02-19T12:46:24;97243.78;;;13.53;42.18
50977;BME280;36992;48.200;12.418;2023-02-19T12:48:55;97237.88;;;13.51;42.03
50977;BME280;36992;48.200;12.418;2023-02-19T12:51:27;97245.72;;;13.52;42.46
50977;BME280;36992;48.200;12.418;2023-02-19T12:53:57;97257.50;;;13.42;41.83
50977;BME280;36992;48.200;12.418;2023-02-19T12:56:31;97250.66;;;13.45;42.03
50977;BME280;36992;48.200;12.418;2023-02-19T12:59:02;97257.25;;;13.39;41.81
50977;BME280;36992;48.200;12.418;2023-02-19T13:01:32;97254.66;;;13.33;41.81
50977;BME280;36992;48.200;12.418;2023-02-19T13:04:13;97245.03;;;13.27;41.74
50977;BME280;36992;48.200;12.418;2023-02-19T13:06:45;97251.00;;;13.24;41.95
50977;BME280;36992;48.200;12.418;2023-02-19T13:09:19;97252.03;;;13.28;41.62
50977;BME280;36992;48.200;12.418;2023-02-19T13:11:52;97267.84;;;13.21;41.92